Terminal Aerodrome Forecast
Issued by NWS Dodge City, KS

Home | Current Version | Previous Version | Graphics & Text | Print | Product List | Glossary Off
Versions: 1 2 3 4 5 6 7 8 9 10 11 12 13 14 15

000
FTUS43 KDDC 151100
TAFDDC
TAF
KDDC 151120Z 1512/1612 24008KT P6SM SKC
     FM151400 22013KT P6SM SKC
     FM151700 22020G29KT P6SM SKC
     FM160000 17015KT P6SM SKC=

USA.gov is the U.S. government's official web portal to all federal, state and local government web resources and services.